sensor_id;sensor_type;location;lat;lon;timestamp;temperature;humidity
33988;DHT22;37428;53.580;-1.666;2023-05-09T00:00:00;13.70;89.90
33988;DHT22;37428;53.580;-1.666;2023-05-09T00:03:03;13.70;89.60
33988;DHT22;37428;53.580;-1.666;2023-05-09T00:06:06;13.70;89.60
33988;DHT22;37428;53.580;-1.666;2023-05-09T00:09:08;13.80;89.80
33988;DHT22;37428;53.580;-1.666;2023-05-09T00:12:10;13.70;89.50
33988;DHT22;37428;53.580;-1.666;2023-05-09T00:15:12;13.70;89.70
33988;DHT22;37428;53.580;-1.666;2023-05-09T00:18:16;13.60;89.30
33988;DHT22;37428;53.580;-1.666;2023-05-09T00:21:19;13.60;89.70
33988;DHT22;37428;53.580;-1.666;2023-05-09T00:24:21;13.60;89.70
33988;DHT22;37428;53.580;-1.666;2023-05-09T00:27:23;13.50;89.90
33988;DHT22;37428;53.580;-1.666;2023-05-09T00:30:25;13.50;90.10
33988;DHT22;37428;53.580;-1.666;2023-05-09T00:33:28;13.40;90.40
33988;DHT22;37428;53.580;-1.666;2023-05-09T00:36:31;13.40;90.40
33988;DHT22;37428;53.580;-1.666;2023-05-09T00:39:33;13.40;90.50
33988;DHT22;37428;53.580;-1.666;2023-05-09T00:42:35;13.30;90.60
33988;DHT22;37428;53.580;-1.666;2023-05-09T00:45:37;13.30;90.50
33988;DHT22;37428;53.580;-1.666;2023-05-09T00:48:41;13.30;90.60
33988;DHT22;37428;53.580;-1.666;2023-05-09T00:51:43;13.30;90.60
33988;DHT22;37428;53.580;-1.666;2023-05-09T00:54:45;13.20;90.40
33988;DHT22;37428;53.580;-1.666;2023-05-09T00:57:47;13.20;90.40
33988;DHT22;37428;53.580;-1.666;2023-05-09T01:00:49;13.20;90.60
33988;DHT22;37428;53.580;-1.666;2023-05-09T01:03:53;13.10;90.30
33988;DHT22;37428;53.580;-1.666;2023-05-09T01:07:03;13.10;90.50
33988;DHT22;37428;53.580;-1.666;2023-05-09T01:10:10;13.00;90.70
33988;DHT22;37428;53.580;-1.666;2023-05-09T01:13:23;13.00;90.40
33988;DHT22;37428;53.580;-1.666;2023-05-09T01:16:32;12.90;90.60
33988;DHT22;37428;53.580;-1.666;2023-05-09T01:19:55;12.80;90.80
33988;DHT22;37428;53.580;-1.666;2023-05-09T01:23:16;12.80;91.00
33988;DHT22;37428;53.580;-1.666;2023-05-09T01:26:27;12.70;90.70
33988;DHT22;37428;53.580;-1.666;2023-05-09T01:29:36;12.70;90.60
33988;DHT22;37428;53.580;-1.666;2023-05-09T01:32:45;12.60;91.40
33988;DHT22;37428;53.580;-1.666;2023-05-09T01:35:52;12.60;91.40
33988;DHT22;37428;53.580;-1.666;2023-05-09T01:38:56;12.60;91.70
33988;DHT22;37428;53.580;-1.666;2023-05-09T01:42:01;12.60;91.70
33988;DHT22;37428;53.580;-1.666;2023-05-09T01:45:07;12.60;91.70
33988;DHT22;37428;53.580;-1.666;2023-05-09T01:48:11;12.60;91.60
33988;DHT22;37428;53.580;-1.666;2023-05-09T01:51:14;12.50;91.70
33988;DHT22;37428;53.580;-1.666;2023-05-09T01:54:20;12.60;91.80
33988;DHT22;37428;53.580;-1.666;2023-05-09T01:57:25;12.60;92.10
33988;DHT22;37428;53.580;-1.666;2023-05-09T02:00:30;12.60;92.20
33988;DHT22;37428;53.580;-1.666;2023-05-09T02:03:33;12.70;92.50
33988;DHT22;37428;53.580;-1.666;2023-05-09T02:06:38;12.60;92.40
33988;DHT22;37428;53.580;-1.666;2023-05-09T02:09:41;12.60;92.20
33988;DHT22;37428;53.580;-1.666;2023-05-09T02:12:43;12.60;92.10
33988;DHT22;37428;53.580;-1.666;2023-05-09T02:15:47;12.70;92.10
33988;DHT22;37428;53.580;-1.666;2023-05-09T02:18:49;12.70;91.90
33988;DHT22;37428;53.580;-1.666;2023-05-09T02:21:51;12.70;92.00
33988;DHT22;37428;53.580;-1.666;2023-05-09T02:24:53;12.70;91.80
33988;DHT22;37428;53.580;-1.666;2023-05-09T02:27:56;12.70;91.80
33988;DHT22;37428;53.580;-1.666;2023-05-09T02:31:01;12.80;91.60
33988;DHT22;37428;53.580;-1.666;2023-05-09T02:34:06;12.80;91.70
33988;DHT22;37428;53.580;-1.666;2023-05-09T02:37:10;12.80;91.90
33988;DHT22;37428;53.580;-1.666;2023-05-09T02:40:12;12.80;91.70
33988;DHT22;37428;53.580;-1.666;2023-05-09T02:43:14;12.80;91.80
33988;DHT22;37428;53.580;-1.666;2023-05-09T02:46:18;12.80;92.10
33988;DHT22;37428;53.580;-1.666;2023-05-09T02:49:20;12.80;92.00
33988;DHT22;37428;53.580;-1.666;2023-05-09T02:52:22;12.80;91.80
33988;DHT22;37428;53.580;-1.666;2023-05-09T02:55:24;12.80;92.10
33988;DHT22;37428;53.580;-1.666;2023-05-09T02:58:26;12.80;92.30
33988;DHT22;37428;53.580;-1.666;2023-05-09T03:01:30;12.70;92.70
33988;DHT22;37428;53.580;-1.666;2023-05-09T03:04:32;12.80;92.80
33988;DHT22;37428;53.580;-1.666;2023-05-09T03:07:34;12.80;92.80
33988;DHT22;37428;53.580;-1.666;2023-05-09T03:10:36;12.80;93.10
33988;DHT22;37428;53.580;-1.666;2023-05-09T03:13:38;12.80;93.10
33988;DHT22;37428;53.580;-1.666;2023-05-09T03:16:42;12.80;93.40
33988;DHT22;37428;53.580;-1.666;2023-05-09T03:19:44;12.80;93.30
33988;DHT22;37428;53.580;-1.666;2023-05-09T03:22:46;12.80;93.10
33988;DHT22;37428;53.580;-1.666;2023-05-09T03:25:48;12.90;93.20
33988;DHT22;37428;53.580;-1.666;2023-05-09T03:28:51;12.90;93.10
33988;DHT22;37428;53.580;-1.666;2023-05-09T03:31:54;12.90;93.10
33988;DHT22;37428;53.580;-1.666;2023-05-09T03:34:56;12.80;92.70
33988;DHT22;37428;53.580;-1.666;2023-05-09T03:37:58;12.80;92.70
33988;DHT22;37428;53.580;-1.666;2023-05-09T03:41:01;12.80;92.80
33988;DHT22;37428;53.580;-1.666;2023-05-09T03:44:04;12.80;93.30
33988;DHT22;37428;53.580;-1.666;2023-05-09T03:47:07;12.80;93.20
33988;DHT22;37428;53.580;-1.666;2023-05-09T03:50:09;12.90;93.10
33988;DHT22;37428;53.580;-1.666;2023-05-09T03:53:12;12.90;93.10
33988;DHT22;37428;53.580;-1.666;2023-05-09T03:56:14;12.80;92.80
33988;DHT22;37428;53.580;-1.666;2023-05-09T03:59:16;12.80;93.20
33988;DHT22;37428;53.580;-1.666;2023-05-09T04:02:19;12.80;93.20
33988;DHT22;37428;53.580;-1.666;2023-05-09T04:05:22;12.90;93.20
33988;DHT22;37428;53.580;-1.666;2023-05-09T04:08:24;12.80;93.10
33988;DHT22;37428;53.580;-1.666;2023-05-09T04:11:27;12.80;93.10
33988;DHT22;37428;53.580;-1.666;2023-05-09T04:14:29;12.80;93.00
33988;DHT22;37428;53.580;-1.666;2023-05-09T04:17:33;12.70;93.00
33988;DHT22;37428;53.580;-1.666;2023-05-09T04:20:35;12.70;93.10
33988;DHT22;37428;53.580;-1.666;2023-05-09T04:23:37;12.60;93.00
33988;DHT22;37428;53.580;-1.666;2023-05-09T04:26:39;12.60;93.30
33988;DHT22;37428;53.580;-1.666;2023-05-09T04:29:41;12.60;93.50
33988;DHT22;37428;53.580;-1.666;2023-05-09T04:32:45;12.60;93.80
33988;DHT22;37428;53.580;-1.666;2023-05-09T04:35:48;12.50;93.30
33988;DHT22;37428;53.580;-1.666;2023-05-09T04:38:50;12.50;93.70
33988;DHT22;37428;53.580;-1.666;2023-05-09T04:41:53;12.50;93.80
33988;DHT22;37428;53.580;-1.666;2023-05-09T04:44:55;12.40;93.80
33988;DHT22;37428;53.580;-1.666;2023-05-09T04:47:58;12.40;93.80
33988;DHT22;37428;53.580;-1.666;2023-05-09T04:51:01;12.30;93.90
33988;DHT22;37428;53.580;-1.666;2023-05-09T04:54:03;12.30;94.20
33988;DHT22;37428;53.580;-1.666;2023-05-09T04:57:06;12.20;94.50
33988;DHT22;37428;53.580;-1.666;2023-05-09T05:00:09;12.20;94.60
33988;DHT22;37428;53.580;-1.666;2023-05-09T05:03:13;12.20;94.50
33988;DHT22;37428;53.580;-1.666;2023-05-09T05:06:17;12.20;94.60
33988;DHT22;37428;53.580;-1.666;2023-05-09T05:09:19;12.20;94.30
33988;DHT22;37428;53.580;-1.666;2023-05-09T05:12:22;12.30;94.70
33988;DHT22;37428;53.580;-1.666;2023-05-09T05:15:24;12.30;94.30
33988;DHT22;37428;53.580;-1.666;2023-05-09T05:18:27;12.30;94.60
33988;DHT22;37428;53.580;-1.666;2023-05-09T05:21:30;12.40;94.70
33988;DHT22;37428;53.580;-1.666;2023-05-09T05:24:32;12.50;94.50
33988;DHT22;37428;53.580;-1.666;2023-05-09T05:27:34;12.60;94.50
33988;DHT22;37428;53.580;-1.666;2023-05-09T05:30:36;12.70;94.10
33988;DHT22;37428;53.580;-1.666;2023-05-09T05:33:40;12.70;94.30
33988;DHT22;37428;53.580;-1.666;2023-05-09T05:36:42;12.70;93.90
33988;DHT22;37428;53.580;-1.666;2023-05-09T05:39:44;12.80;93.60
33988;DHT22;37428;53.580;-1.666;2023-05-09T05:42:46;13.00;93.40
33988;DHT22;37428;53.580;-1.666;2023-05-09T05:45:48;13.10;92.70
33988;DHT22;37428;53.580;-1.666;2023-05-09T05:48:52;13.20;92.60
33988;DHT22;37428;53.580;-1.666;2023-05-09T05:51:54;13.30;91.60
33988;DHT22;37428;53.580;-1.666;2023-05-09T05:54:56;13.30;91.90
33988;DHT22;37428;53.580;-1.666;2023-05-09T05:57:58;13.40;91.60
33988;DHT22;37428;53.580;-1.666;2023-05-09T06:01:00;13.30;91.70
33988;DHT22;37428;53.580;-1.666;2023-05-09T06:04:04;13.40;92.00
33988;DHT22;37428;53.580;-1.666;2023-05-09T06:07:07;13.40;92.10
33988;DHT22;37428;53.580;-1.666;2023-05-09T06:10:09;13.70;91.70
33988;DHT22;37428;53.580;-1.666;2023-05-09T06:13:11;13.90;90.40
33988;DHT22;37428;53.580;-1.666;2023-05-09T06:16:14;14.00;89.20
33988;DHT22;37428;53.580;-1.666;2023-05-09T06:19:17;14.20;89.10
33988;DHT22;37428;53.580;-1.666;2023-05-09T06:22:21;14.30;88.80
33988;DHT22;37428;53.580;-1.666;2023-05-09T06:25:25;14.20;87.90
33988;DHT22;37428;53.580;-1.666;2023-05-09T06:28:27;14.20;87.70
33988;DHT22;37428;53.580;-1.666;2023-05-09T06:31:30;14.30;87.80
33988;DHT22;37428;53.580;-1.666;2023-05-09T06:34:36;14.30;87.60
33988;DHT22;37428;53.580;-1.666;2023-05-09T06:37:38;14.30;85.40
33988;DHT22;37428;53.580;-1.666;2023-05-09T06:40:41;14.40;85.50
33988;DHT22;37428;53.580;-1.666;2023-05-09T06:43:43;14.50;84.00
33988;DHT22;37428;53.580;-1.666;2023-05-09T06:46:45;14.60;84.70
33988;DHT22;37428;53.580;-1.666;2023-05-09T06:49:48;14.80;83.90
33988;DHT22;37428;53.580;-1.666;2023-05-09T06:52:50;14.90;83.30
33988;DHT22;37428;53.580;-1.666;2023-05-09T06:55:52;14.90;82.50
33988;DHT22;37428;53.580;-1.666;2023-05-09T06:58:55;15.00;82.40
33988;DHT22;37428;53.580;-1.666;2023-05-09T07:01:57;15.10;81.40
33988;DHT22;37428;53.580;-1.666;2023-05-09T07:05:00;15.20;80.40
33988;DHT22;37428;53.580;-1.666;2023-05-09T07:08:02;15.30;79.20
33988;DHT22;37428;53.580;-1.666;2023-05-09T07:11:05;15.30;79.80
33988;DHT22;37428;53.580;-1.666;2023-05-09T07:14:07;15.50;79.60
33988;DHT22;37428;53.580;-1.666;2023-05-09T07:17:09;15.50;77.20
33988;DHT22;37428;53.580;-1.666;2023-05-09T07:20:12;15.60;77.00
33988;DHT22;37428;53.580;-1.666;2023-05-09T07:23:15;15.70;77.70
33988;DHT22;37428;53.580;-1.666;2023-05-09T07:26:17;15.80;77.70
33988;DHT22;37428;53.580;-1.666;2023-05-09T07:29:20;15.90;77.80
33988;DHT22;37428;53.580;-1.666;2023-05-09T07:32:23;16.10;76.80
33988;DHT22;37428;53.580;-1.666;2023-05-09T07:35:26;16.20;74.90
33988;DHT22;37428;53.580;-1.666;2023-05-09T07:38:28;16.20;74.50
33988;DHT22;37428;53.580;-1.666;2023-05-09T07:41:30;16.40;73.80
33988;DHT22;37428;53.580;-1.666;2023-05-09T07:44:32;16.60;74.80
33988;DHT22;37428;53.580;-1.666;2023-05-09T07:47:35;16.90;74.80
33988;DHT22;37428;53.580;-1.666;2023-05-09T07:50:38;16.90;72.30
33988;DHT22;37428;53.580;-1.666;2023-05-09T07:53:42;17.10;72.80
33988;DHT22;37428;53.580;-1.666;2023-05-09T07:56:44;17.10;71.30
33988;DHT22;37428;53.580;-1.666;2023-05-09T07:59:46;16.80;70.10
33988;DHT22;37428;53.580;-1.666;2023-05-09T08:02:48;16.70;69.50
33988;DHT22;37428;53.580;-1.666;2023-05-09T08:05:53;16.80;70.70
33988;DHT22;37428;53.580;-1.666;2023-05-09T08:08:56;17.10;71.90
33988;DHT22;37428;53.580;-1.666;2023-05-09T08:11:58;17.00;70.90
33988;DHT22;37428;53.580;-1.666;2023-05-09T08:15:00;16.70;70.70
33988;DHT22;37428;53.580;-1.666;2023-05-09T08:18:02;16.70;71.80
33988;DHT22;37428;53.580;-1.666;2023-05-09T08:21:05;17.00;72.10
33988;DHT22;37428;53.580;-1.666;2023-05-09T08:24:08;17.20;70.50
33988;DHT22;37428;53.580;-1.666;2023-05-09T08:27:10;17.40;68.70
33988;DHT22;37428;53.580;-1.666;2023-05-09T08:30:14;17.70;68.60
33988;DHT22;37428;53.580;-1.666;2023-05-09T08:33:19;17.90;67.80
33988;DHT22;37428;53.580;-1.666;2023-05-09T08:36:23;18.10;67.50
33988;DHT22;37428;53.580;-1.666;2023-05-09T08:39:27;18.40;66.90
33988;DHT22;37428;53.580;-1.666;2023-05-09T08:42:34;18.50;66.20
33988;DHT22;37428;53.580;-1.666;2023-05-09T08:45:45;18.20;63.30
33988;DHT22;37428;53.580;-1.666;2023-05-09T08:48:50;17.70;63.70
33988;DHT22;37428;53.580;-1.666;2023-05-09T08:51:54;17.70;63.80
33988;DHT22;37428;53.580;-1.666;2023-05-09T08:54:56;17.60;65.20
33988;DHT22;37428;53.580;-1.666;2023-05-09T08:57:58;17.40;64.40
33988;DHT22;37428;53.580;-1.666;2023-05-09T09:01:01;17.30;65.60
33988;DHT22;37428;53.580;-1.666;2023-05-09T09:04:05;17.60;65.50
33988;DHT22;37428;53.580;-1.666;2023-05-09T09:07:09;17.90;65.70
33988;DHT22;37428;53.580;-1.666;2023-05-09T09:10:12;18.30;63.40
33988;DHT22;37428;53.580;-1.666;2023-05-09T09:13:17;18.80;62.00
33988;DHT22;37428;53.580;-1.666;2023-05-09T09:16:22;19.20;62.10
33988;DHT22;37428;53.580;-1.666;2023-05-09T09:19:29;19.50;60.40
33988;DHT22;37428;53.580;-1.666;2023-05-09T09:22:34;19.70;59.80
33988;DHT22;37428;53.580;-1.666;2023-05-09T09:25:38;19.70;59.60
33988;DHT22;37428;53.580;-1.666;2023-05-09T09:28:41;19.60;58.80
33988;DHT22;37428;53.580;-1.666;2023-05-09T09:31:44;19.80;60.90
33988;DHT22;37428;53.580;-1.666;2023-05-09T09:34:48;19.80;59.70
33988;DHT22;37428;53.580;-1.666;2023-05-09T09:37:55;19.90;59.50
33988;DHT22;37428;53.580;-1.666;2023-05-09T09:40:58;19.90;59.20
33988;DHT22;37428;53.580;-1.666;2023-05-09T09:44:06;20.10;59.30
33988;DHT22;37428;53.580;-1.666;2023-05-09T09:47:09;20.60;59.40
33988;DHT22;37428;53.580;-1.666;2023-05-09T09:50:13;20.70;57.60
33988;DHT22;37428;53.580;-1.666;2023-05-09T09:53:19;20.70;56.70
33988;DHT22;37428;53.580;-1.666;2023-05-09T09:56:21;20.60;55.70
33988;DHT22;37428;53.580;-1.666;2023-05-09T09:59:38;20.50;55.70
33988;DHT22;37428;53.580;-1.666;2023-05-09T10:02:48;20.60;55.40
33988;DHT22;37428;53.580;-1.666;2023-05-09T10:06:00;20.70;56.90
33988;DHT22;37428;53.580;-1.666;2023-05-09T10:09:03;20.90;56.20
33988;DHT22;37428;53.580;-1.666;2023-05-09T10:12:07;21.10;55.20
33988;DHT22;37428;53.580;-1.666;2023-05-09T10:15:09;21.00;55.10
33988;DHT22;37428;53.580;-1.666;2023-05-09T10:18:16;21.00;54.80
33988;DHT22;37428;53.580;-1.666;2023-05-09T10:21:19;20.90;55.00
33988;DHT22;37428;53.580;-1.666;2023-05-09T10:24:26;21.00;54.50
33988;DHT22;37428;53.580;-1.666;2023-05-09T10:27:31;21.10;54.40
33988;DHT22;37428;53.580;-1.666;2023-05-09T10:30:38;21.30;54.80
33988;DHT22;37428;53.580;-1.666;2023-05-09T10:33:45;21.60;55.10
33988;DHT22;37428;53.580;-1.666;2023-05-09T10:36:47;21.80;53.40
33988;DHT22;37428;53.580;-1.666;2023-05-09T10:39:52;21.90;51.50
33988;DHT22;37428;53.580;-1.666;2023-05-09T10:42:55;21.80;50.60
33988;DHT22;37428;53.580;-1.666;2023-05-09T10:45:57;21.80;51.60
33988;DHT22;37428;53.580;-1.666;2023-05-09T10:49:00;22.00;53.40
33988;DHT22;37428;53.580;-1.666;2023-05-09T10:52:02;22.30;51.10
33988;DHT22;37428;53.580;-1.666;2023-05-09T10:55:08;22.40;49.70
33988;DHT22;37428;53.580;-1.666;2023-05-09T10:58:27;22.20;47.40
33988;DHT22;37428;53.580;-1.666;2023-05-09T11:01:31;22.10;49.20
33988;DHT22;37428;53.580;-1.666;2023-05-09T11:04:34;22.10;47.50
33988;DHT22;37428;53.580;-1.666;2023-05-09T11:07:36;22.00;48.60
33988;DHT22;37428;53.580;-1.666;2023-05-09T11:10:42;21.70;48.60
33988;DHT22;37428;53.580;-1.666;2023-05-09T11:13:45;21.40;48.90
33988;DHT22;37428;53.580;-1.666;2023-05-09T11:16:55;21.10;49.10
33988;DHT22;37428;53.580;-1.666;2023-05-09T11:19:59;20.90;51.10
33988;DHT22;37428;53.580;-1.666;2023-05-09T11:23:03;20.90;53.50
33988;DHT22;37428;53.580;-1.666;2023-05-09T11:26:08;21.10;53.80
33988;DHT22;37428;53.580;-1.666;2023-05-09T11:29:10;21.30;54.60
33988;DHT22;37428;53.580;-1.666;2023-05-09T11:32:13;21.40;53.60
33988;DHT22;37428;53.580;-1.666;2023-05-09T11:35:17;21.00;51.70
33988;DHT22;37428;53.580;-1.666;2023-05-09T11:38:20;20.70;53.20
33988;DHT22;37428;53.580;-1.666;2023-05-09T11:41:24;20.60;53.30
33988;DHT22;37428;53.580;-1.666;2023-05-09T11:44:27;20.80;54.00
33988;DHT22;37428;53.580;-1.666;2023-05-09T11:47:31;20.90;54.30
33988;DHT22;37428;53.580;-1.666;2023-05-09T11:50:33;20.80;54.40
33988;DHT22;37428;53.580;-1.666;2023-05-09T11:53:41;21.20;53.30
33988;DHT22;37428;53.580;-1.666;2023-05-09T11:56:47;21.50;52.50
33988;DHT22;37428;53.580;-1.666;2023-05-09T11:59:50;21.10;50.50
33988;DHT22;37428;53.580;-1.666;2023-05-09T12:02:52;21.00;52.40
33988;DHT22;37428;53.580;-1.666;2023-05-09T12:05:54;20.80;53.20
33988;DHT22;37428;53.580;-1.666;2023-05-09T12:08:57;20.40;51.70
33988;DHT22;37428;53.580;-1.666;2023-05-09T12:12:00;20.10;52.30
33988;DHT22;37428;53.580;-1.666;2023-05-09T12:15:04;19.90;54.20
33988;DHT22;37428;53.580;-1.666;2023-05-09T12:18:08;19.70;52.90
33988;DHT22;37428;53.580;-1.666;2023-05-09T12:21:10;19.40;54.00
33988;DHT22;37428;53.580;-1.666;2023-05-09T12:24:12;19.30;54.80
33988;DHT22;37428;53.580;-1.666;2023-05-09T12:27:16;19.30;56.00
33988;DHT22;37428;53.580;-1.666;2023-05-09T12:30:19;19.40;56.50
33988;DHT22;37428;53.580;-1.666;2023-05-09T12:33:21;19.80;56.90
33988;DHT22;37428;53.580;-1.666;2023-05-09T12:36:23;20.10;55.10
33988;DHT22;37428;53.580;-1.666;2023-05-09T12:39:26;20.40;54.70
33988;DHT22;37428;53.580;-1.666;2023-05-09T12:42:30;20.60;54.20
33988;DHT22;37428;53.580;-1.666;2023-05-09T12:45:32;21.10;53.30
33988;DHT22;37428;53.580;-1.666;2023-05-09T12:48:36;21.10;53.10
33988;DHT22;37428;53.580;-1.666;2023-05-09T12:51:47;21.30;51.80
33988;DHT22;37428;53.580;-1.666;2023-05-09T12:54:51;21.50;50.40
33988;DHT22;37428;53.580;-1.666;2023-05-09T12:57:59;21.50;50.80
33988;DHT22;37428;53.580;-1.666;2023-05-09T13:01:03;21.80;50.00
33988;DHT22;37428;53.580;-1.666;2023-05-09T13:04:06;21.80;48.90
33988;DHT22;37428;53.580;-1.666;2023-05-09T13:07:09;21.80;51.10
33988;DHT22;37428;53.580;-1.666;2023-05-09T13:10:12;21.80;50.40
33988;DHT22;37428;53.580;-1.666;2023-05-09T13:13:16;22.10;49.60
33988;DHT22;37428;53.580;-1.666;2023-05-09T13:16:19;22.40;47.70
33988;DHT22;37428;53.580;-1.666;2023-05-09T13:19:21;22.40;47.60
33988;DHT22;37428;53.580;-1.666;2023-05-09T13:22:23;22.30;46.10
33988;DHT22;37428;53.580;-1.666;2023-05-09T13:25:25;22.10;47.00
33988;DHT22;37428;53.580;-1.666;2023-05-09T13:28:29;21.80;46.60
33988;DHT22;37428;53.580;-1.666;2023-05-09T13:31:31;22.10;46.50
33988;DHT22;37428;53.580;-1.666;2023-05-09T13:34:33;22.30;47.70
33988;DHT22;37428;53.580;-1.666;2023-05-09T13:37:35;22.10;46.10
33988;DHT22;37428;53.580;-1.666;2023-05-09T13:40:37;22.00;46.40
33988;DHT22;37428;53.580;-1.666;2023-05-09T13:43:41;21.70;46.40
33988;DHT22;37428;53.580;-1.666;2023-05-09T13:46:43;21.40;46.50
33988;DHT22;37428;53.580;-1.666;2023-05-09T13:49:45;21.20;47.90
33988;DHT22;37428;53.580;-1.666;2023-05-09T13:52:47;20.80;47.90
33988;DHT22;37428;53.580;-1.666;2023-05-09T13:55:49;20.50;48.50
33988;DHT22;37428;53.580;-1.666;2023-05-09T13:58:53;20.40;49.00
33988;DHT22;37428;53.580;-1.666;2023-05-09T14:01:55;20.30;49.50
33988;DHT22;37428;53.580;-1.666;2023-05-09T14:04:59;20.30;49.80
33988;DHT22;37428;53.580;-1.666;2023-05-09T14:08:02;20.80;50.10
33988;DHT22;37428;53.580;-1.666;2023-05-09T14:11:05;20.90;50.00
33988;DHT22;37428;53.580;-1.666;2023-05-09T14:14:10;20.90;49.60
33988;DHT22;37428;53.580;-1.666;2023-05-09T14:17:12;20.90;48.50
33988;DHT22;37428;53.580;-1.666;2023-05-09T14:20:14;21.10;47.00
33988;DHT22;37428;53.580;-1.666;2023-05-09T14:23:16;21.50;47.10
33988;DHT22;37428;53.580;-1.666;2023-05-09T14:26:19;22.00;46.70
33988;DHT22;37428;53.580;-1.666;2023-05-09T14:29:23;22.20;46.30
33988;DHT22;37428;53.580;-1.666;2023-05-09T14:32:25;22.20;45.00
33988;DHT22;37428;53.580;-1.666;2023-05-09T14:35:27;22.00;45.80
33988;DHT22;37428;53.580;-1.666;2023-05-09T14:38:32;22.10;45.00
33988;DHT22;37428;53.580;-1.666;2023-05-09T14:41:35;22.10;45.90
33988;DHT22;37428;53.580;-1.666;2023-05-09T14:44:39;22.00;45.40
33988;DHT22;37428;53.580;-1.666;2023-05-09T14:47:41;21.60;46.10
33988;DHT22;37428;53.580;-1.666;2023-05-09T14:50:44;21.20;46.40
33988;DHT22;37428;53.580;-1.666;2023-05-09T14:53:46;21.10;45.80
33988;DHT22;37428;53.580;-1.666;2023-05-09T14:56:48;21.40;45.30
33988;DHT22;37428;53.580;-1.666;2023-05-09T14:59:52;21.30;46.30
33988;DHT22;37428;53.580;-1.666;2023-05-09T15:02:54;21.20;46.80
33988;DHT22;37428;53.580;-1.666;2023-05-09T15:05:57;21.50;46.00
33988;DHT22;37428;53.580;-1.666;2023-05-09T15:08:59;21.70;44.80
33988;DHT22;37428;53.580;-1.666;2023-05-09T15:12:01;21.90;43.50
33988;DHT22;37428;53.580;-1.666;2023-05-09T15:15:13;22.00;42.10
33988;DHT22;37428;53.580;-1.666;2023-05-09T15:18:15;22.20;43.50
33988;DHT22;37428;53.580;-1.666;2023-05-09T15:21:19;22.40;42.30
33988;DHT22;37428;53.580;-1.666;2023-05-09T15:24:21;22.40;42.60
33988;DHT22;37428;53.580;-1.666;2023-05-09T15:27:23;22.00;43.10
33988;DHT22;37428;53.580;-1.666;2023-05-09T15:30:27;22.10;43.50
33988;DHT22;37428;53.580;-1.666;2023-05-09T15:33:29;22.00;42.70
33988;DHT22;37428;53.580;-1.666;2023-05-09T15:36:31;22.00;43.70
33988;DHT22;37428;53.580;-1.666;2023-05-09T15:39:33;21.90;44.20
33988;DHT22;37428;53.580;-1.666;2023-05-09T15:42:37;21.60;43.90
33988;DHT22;37428;53.580;-1.666;2023-05-09T15:45:40;21.30;44.10
33988;DHT22;37428;53.580;-1.666;2023-05-09T15:48:45;21.10;44.90
33988;DHT22;37428;53.580;-1.666;2023-05-09T15:51:47;20.90;45.30
33988;DHT22;37428;53.580;-1.666;2023-05-09T15:54:49;20.70;46.10
33988;DHT22;37428;53.580;-1.666;2023-05-09T15:57:51;20.50;46.60
33988;DHT22;37428;53.580;-1.666;2023-05-09T16:00:55;20.30;46.00
33988;DHT22;37428;53.580;-1.666;2023-05-09T16:03:57;20.10;47.00
33988;DHT22;37428;53.580;-1.666;2023-05-09T16:06:59;19.90;47.80
33988;DHT22;37428;53.580;-1.666;2023-05-09T16:10:02;19.80;47.10
33988;DHT22;37428;53.580;-1.666;2023-05-09T16:13:04;19.70;48.20
33988;DHT22;37428;53.580;-1.666;2023-05-09T16:16:07;19.70;48.80
33988;DHT22;37428;53.580;-1.666;2023-05-09T16:19:09;19.80;47.80
33988;DHT22;37428;53.580;-1.666;2023-05-09T16:22:14;19.70;48.80
33988;DHT22;37428;53.580;-1.666;2023-05-09T16:25:16;19.60;49.30
33988;DHT22;37428;53.580;-1.666;2023-05-09T16:28:18;19.60;48.80
33988;DHT22;37428;53.580;-1.666;2023-05-09T16:31:24;19.60;48.70
33988;DHT22;37428;53.580;-1.666;2023-05-09T16:34:26;19.60;48.00
33988;DHT22;37428;53.580;-1.666;2023-05-09T16:37:29;19.60;48.50
33988;DHT22;37428;53.580;-1.666;2023-05-09T16:40:31;19.60;48.00
33988;DHT22;37428;53.580;-1.666;2023-05-09T16:43:33;19.50;48.60
33988;DHT22;37428;53.580;-1.666;2023-05-09T16:46:36;19.50;48.50
33988;DHT22;37428;53.580;-1.666;2023-05-09T16:49:38;19.50;49.80
33988;DHT22;37428;53.580;-1.666;2023-05-09T16:52:40;19.50;49.10
33988;DHT22;37428;53.580;-1.666;2023-05-09T16:55:42;19.40;49.60
33988;DHT22;37428;53.580;-1.666;2023-05-09T16:58:44;19.40;50.30
33988;DHT22;37428;53.580;-1.666;2023-05-09T17:01:50;19.50;50.30
33988;DHT22;37428;53.580;-1.666;2023-05-09T17:04:53;19.40;50.30
33988;DHT22;37428;53.580;-1.666;2023-05-09T17:07:55;19.40;49.80
33988;DHT22;37428;53.580;-1.666;2023-05-09T17:10:57;19.30;50.20
33988;DHT22;37428;53.580;-1.666;2023-05-09T17:14:01;19.30;51.00
33988;DHT22;37428;53.580;-1.666;2023-05-09T17:17:06;19.20;51.30
33988;DHT22;37428;53.580;-1.666;2023-05-09T17:20:09;19.00;51.10
33988;DHT22;37428;53.580;-1.666;2023-05-09T17:23:12;18.80;52.20
33988;DHT22;37428;53.580;-1.666;2023-05-09T17:26:15;18.70;53.10
33988;DHT22;37428;53.580;-1.666;2023-05-09T17:29:17;18.60;53.50
33988;DHT22;37428;53.580;-1.666;2023-05-09T17:32:20;18.50;52.70
33988;DHT22;37428;53.580;-1.666;2023-05-09T17:35:23;18.30;51.60
33988;DHT22;37428;53.580;-1.666;2023-05-09T17:38:25;18.20;51.90
33988;DHT22;37428;53.580;-1.666;2023-05-09T17:41:27;18.20;52.20
33988;DHT22;37428;53.580;-1.666;2023-05-09T17:44:29;18.00;52.40
33988;DHT22;37428;53.580;-1.666;2023-05-09T17:47:33;18.00;52.50
33988;DHT22;37428;53.580;-1.666;2023-05-09T17:50:36;17.90;52.50
33988;DHT22;37428;53.580;-1.666;2023-05-09T17:53:38;17.90;53.20
33988;DHT22;37428;53.580;-1.666;2023-05-09T17:56:41;17.80;53.30
33988;DHT22;37428;53.580;-1.666;2023-05-09T17:59:43;17.70;53.40
33988;DHT22;37428;53.580;-1.666;2023-05-09T18:02:48;17.60;52.70
33988;DHT22;37428;53.580;-1.666;2023-05-09T18:05:51;17.50;53.00
33988;DHT22;37428;53.580;-1.666;2023-05-09T18:08:53;17.30;53.40
33988;DHT22;37428;53.580;-1.666;2023-05-09T18:11:55;17.10;54.60
33988;DHT22;37428;53.580;-1.666;2023-05-09T18:14:58;17.00;54.80
33988;DHT22;37428;53.580;-1.666;2023-05-09T18:18:02;16.90;55.50
33988;DHT22;37428;53.580;-1.666;2023-05-09T18:21:05;16.90;56.00
33988;DHT22;37428;53.580;-1.666;2023-05-09T18:24:09;16.80;55.60
33988;DHT22;37428;53.580;-1.666;2023-05-09T18:27:11;16.60;55.60
33988;DHT22;37428;53.580;-1.666;2023-05-09T18:30:13;16.50;55.90
33988;DHT22;37428;53.580;-1.666;2023-05-09T18:33:17;16.40;56.20
33988;DHT22;37428;53.580;-1.666;2023-05-09T18:36:19;16.40;56.70
33988;DHT22;37428;53.580;-1.666;2023-05-09T18:39:21;16.30;56.50
33988;DHT22;37428;53.580;-1.666;2023-05-09T18:42:23;16.30;57.10
33988;DHT22;37428;53.580;-1.666;2023-05-09T18:45:26;16.40;56.90
33988;DHT22;37428;53.580;-1.666;2023-05-09T18:48:30;16.40;57.00
33988;DHT22;37428;53.580;-1.666;2023-05-09T18:51:33;16.30;56.00
33988;DHT22;37428;53.580;-1.666;2023-05-09T18:54:35;16.30;56.70
33988;DHT22;37428;53.580;-1.666;2023-05-09T18:57:37;16.20;56.60